»·PEaware :: SWA1866 KSNA-KOAK

SWA1866 :: KSNA-KOAK

FLIGHT INFORMATION

Flight Status: Arrived
Operator:
Southwest Airlines
More flights by this operator :: More flights under this callsign
Pilot: Joshua S. (27297)
Aircraft: BOEING 737-800
(B738)
More flights by this aircraft type
Origin: KSNA John Wayne-Orange Co
United States
Destination: KOAK Metro Oakland Intl
United States
More flights between these airports :: More routes between these airports
Route: +HHERO3 OROSZ COREZ RGOOD EMZOH3
File this flight plan on PilotEdge
Remarks:
Altitude:
(Current/Filed)
38,000ft
Speed:
(Current/Filed)
450kts
Departed: 23-May-20 10:22 AM
Arrived: 23-May-20 11:28 AM
Distance/Time
Traveled:
322nm/1:06
Distance/Time
To Go:
Arrived

Flight Plot

Page will automatically refresh every two minutes.


Map Options




Map Legend


Flown Route
Filed Route
Departure Airport
Arrival Airport
Navaid (VOR, NDB)
Fix

Horizontal Profiles

Position Reports

Time Latitude Longitude Heading Altitude Ground
Speed
23-May-20 09:50 33.676798 -117.863925 117 64ft 0kts
23-May-20 09:51 33.676798 -117.863925 117 64ft 0kts
23-May-20 09:52 33.676798 -117.863925 117 64ft 0kts
23-May-20 09:53 33.676798 -117.863925 117 64ft 0kts
23-May-20 09:54 33.676798 -117.863925 117 64ft 0kts
23-May-20 09:55 33.676798 -117.863925 117 64ft 0kts
23-May-20 09:56 33.676798 -117.863925 117 64ft 0kts
23-May-20 09:57 33.676798 -117.863925 117 64ft 0kts
23-May-20 09:58 33.676798 -117.863925 117 64ft 0kts
23-May-20 09:59 33.676798 -117.863925 117 64ft 0kts
23-May-20 10:00 33.676798 -117.863925 117 64ft 0kts
23-May-20 10:01 33.676798 -117.863925 117 64ft 0kts
23-May-20 10:02 33.676798 -117.863925 117 64ft 0kts
23-May-20 10:03 33.676798 -117.863925 117 64ft 0kts
23-May-20 10:04 33.676798 -117.863925 117 64ft 0kts
23-May-20 10:05 33.676798 -117.863925 117 64ft 0kts
23-May-20 10:06 33.676798 -117.863925 117 64ft 0kts
23-May-20 10:07 33.676798 -117.863925 117 64ft 0kts
23-May-20 10:08 33.676798 -117.863925 117 64ft 0kts
23-May-20 10:09 33.676798 -117.863925 117 64ft 0kts
23-May-20 10:10 33.676798 -117.863925 117 64ft 0kts
23-May-20 10:11 33.676925 -117.864637 61 64ft 2kts
23-May-20 10:12 33.676714 -117.864838 27 64ft 0kts
23-May-20 10:13 33.676714 -117.864838 27 64ft 0kts
23-May-20 10:14 33.676714 -117.864838 27 64ft 0kts
23-May-20 10:15 33.677100 -117.864602 27 64ft 9kts
23-May-20 10:16 33.679162 -117.863298 29 64ft 7kts
23-May-20 10:17 33.680575 -117.863016 298 64ft 0kts
23-May-20 10:18 33.681090 -117.864154 297 64ft 0kts
23-May-20 10:19 33.681091 -117.864155 297 64ft 0kts
23-May-20 10:20 33.681396 -117.865226 211 64ft 0kts
23-May-20 10:21 33.660685 -117.879018 210 705ft 160kts
23-May-20 10:22 33.613608 -117.894092 185 2986ft 219kts
23-May-20 10:23 33.549629 -117.922499 223 5417ft 269kts
23-May-20 10:24 33.493426 -117.987478 225 8158ft 290kts
23-May-20 10:25 33.448240 -118.067597 242 11188ft 302kts
23-May-20 10:26 33.414072 -118.167054 273 13136ft 338kts
23-May-20 10:27 33.435262 -118.277589 285 16046ft 345kts
23-May-20 10:28 33.474864 -118.381124 297 18636ft 356kts
23-May-20 10:29 33.531727 -118.479093 327 20904ft 376kts
23-May-20 10:30 33.638193 -118.470880 10 22871ft 413kts
23-May-20 10:31 33.751070 -118.459253 357 23005ft 405kts
23-May-20 10:32 33.864830 -118.459571 355 24738ft 414kts
23-May-20 10:33 33.981423 -118.461491 348 26435ft 420kts
23-May-20 10:34 34.091685 -118.504704 332 28017ft 419kts
23-May-20 10:35 34.199748 -118.560247 332 29373ft 426kts
23-May-20 10:36 34.310138 -118.616690 332 30472ft 433kts
23-May-20 10:37 34.421496 -118.671826 329 31735ft 429kts
23-May-20 10:38 34.524240 -118.742526 324 33013ft 421kts
23-May-20 10:39 34.624550 -118.813922 324 34215ft 418kts
23-May-20 10:40 34.696631 -118.865245 324 35048ft 415kts
23-May-20 10:41 34.740554 -118.896422 324 35557ft 413kts
23-May-20 10:42 34.839470 -118.966584 324 36591ft 411kts
23-May-20 10:43 34.938418 -119.037286 324 37405ft 412kts
23-May-20 10:44 35.037217 -119.108045 324 38048ft 412kts
23-May-20 10:45 35.135294 -119.178576 324 38037ft 409kts
23-May-20 10:46 35.233429 -119.249321 324 38029ft 409kts
23-May-20 10:47 35.331604 -119.320027 324 38025ft 410kts
23-May-20 10:48 35.429783 -119.391314 324 38026ft 408kts
23-May-20 10:49 35.527577 -119.462531 325 38025ft 408kts
23-May-20 10:50 35.617735 -119.545960 317 38028ft 405kts
23-May-20 10:51 35.704451 -119.634365 317 38028ft 405kts
23-May-20 10:52 35.791093 -119.723359 317 38026ft 405kts
23-May-20 10:53 35.877444 -119.812407 317 38026ft 405kts
23-May-20 10:54 35.960900 -119.905395 313 38025ft 404kts
23-May-20 10:55 36.041744 -120.002300 313 38024ft 404kts
23-May-20 10:56 36.122779 -120.099059 313 37452ft 404kts
23-May-20 10:57 36.204179 -120.195714 314 36454ft 407kts
23-May-20 10:58 36.285559 -120.292889 314 35283ft 398kts
23-May-20 10:59 36.363842 -120.386407 315 33427ft 384kts
23-May-20 11:00 36.439281 -120.477381 315 31618ft 371kts
23-May-20 11:01 36.512138 -120.565467 315 29874ft 360kts
23-May-20 11:02 36.585059 -120.648738 318 28185ft 352kts
23-May-20 11:03 36.640423 -120.709632 317 26879ft 348kts
23-May-20 11:04 36.712192 -120.789428 317 25147ft 343kts
23-May-20 11:05 36.782897 -120.868267 317 23426ft 338kts
23-May-20 11:06 36.852279 -120.945180 318 21741ft 329kts
23-May-20 11:07 36.920148 -121.020128 318 20110ft 320kts
23-May-20 11:08 36.985821 -121.093251 319 18533ft 312kts
23-May-20 11:09 37.049687 -121.164746 319 16971ft 305kts
23-May-20 11:10 37.112515 -121.235162 319 15450ft 301kts
23-May-20 11:11 37.174564 -121.305955 318 14051ft 306kts
23-May-20 11:12 37.236639 -121.378190 318 12654ft 301kts
23-May-20 11:13 37.297284 -121.449115 318 11281ft 297kts
23-May-20 11:14 37.356168 -121.518063 318 10228ft 281kts
23-May-20 11:15 37.411983 -121.582385 318 8825ft 272kts
23-May-20 11:16 37.462642 -121.652987 306 7533ft 271kts
23-May-20 11:17 37.505580 -121.729326 307 6601ft 260kts
23-May-20 11:18 37.536933 -121.809623 282 5866ft 259kts
23-May-20 11:20 37.545899 -121.897952 282 5011ft 245kts
23-May-20 11:21 37.555143 -121.977196 280 4295ft 207kts
23-May-20 11:22 37.580482 -122.033359 311 3632ft 187kts
23-May-20 11:23 37.611887 -122.080090 311 2681ft 162kts
23-May-20 11:24 37.639714 -122.121713 310 1862ft 144kts
23-May-20 11:25 37.664376 -122.158635 309 1137ft 136kts
23-May-20 11:26 37.689126 -122.195686 308 425ft 141kts
23-May-20 11:27 37.710731 -122.228161 310 14ft 53kts
23-May-20 11:28 37.714819 -122.231420 23 14ft 11kts
23-May-20 11:29 37.712980 -122.227684 129 14ft 16kts
23-May-20 11:30 37.709654 -122.222687 129 14ft 20kts
23-May-20 11:31 37.706818 -122.218088 70 14ft 13kts
23-May-20 11:32 37.710043 -122.214734 36 14ft 17kts
23-May-20 11:32 37.711619 -122.213924 6 14ft 2kts
23-May-20 11:34 37.711770 -122.213802 37 14ft 0kts
23-May-20 11:35 37.711770 -122.213802 37 14ft 0kts
23-May-20 11:35 37.711770 -122.213802 37 14ft 0kts
23-May-20 11:37 37.711770 -122.213802 37 14ft 0kts
23-May-20 11:38 37.711770 -122.213802 37 14ft 0kts
23-May-20 11:38 37.711770 -122.213802 37 14ft 0kts
23-May-20 11:39 37.711770 -122.213802 37 14ft 0kts
23-May-20 11:41 37.711770 -122.213802 37 14ft 0kts
23-May-20 11:41 37.711770 -122.213802 37 14ft 0kts
23-May-20 11:42 37.711770 -122.213802 37 14ft 0kts

Navigation Log

Ident Type
Flight plan parsing failed, navigation log unavailable